Time;durP1;ratioP1;P1;durP2;ratioP2;P2;SDS_P1;SDS_P2;PMS_P1;PMS_P2;Temp;Humidity;BMP_temperature;BMP_pressure;BME280_temperature;BME280_humidity;BME280_pressure;Samples;Min_cycle;Max_cycle;Signal;HPM_P1;HPM_P2
2023/02/06 00:01:12;;;;;;;40.43;15.20;;;;;;;1.09;100.00;102747.75;5060519;28;21050;-71
2023/02/06 00:03:38;;;;;;;22.60;12.53;;;;;;;1.18;100.00;102753.78;5076775;28;20482;-72
2023/02/06 00:06:05;;;;;;;36.57;15.33;;;;;;;1.23;100.00;102749.34;5070019;28;20488;-72
2023/02/06 00:08:33;;;;;;;35.87;13.20;;;;;;;1.35;100.00;102753.59;5061976;28;20922;-72
2023/02/06 00:11:03;;;;;;;26.83;13.30;;;;;;;1.61;100.00;102753.25;5060587;28;20481;-71
2023/02/06 00:13:29;;;;;;;27.10;14.37;;;;;;;1.74;100.00;102757.47;5076884;28;20520;-72
2023/02/06 00:15:56;;;;;;;26.77;14.07;;;;;;;1.74;100.00;102756.59;5079648;28;20480;-71
2023/02/06 00:18:30;;;;;;;29.83;13.80;;;;;;;1.80;100.00;102760.00;5065202;28;20473;-72
2023/02/06 00:20:57;;;;;;;24.20;12.80;;;;;;;1.79;100.00;102758.25;5062805;28;21273;-71
2023/02/06 00:23:24;;;;;;;26.67;12.37;;;;;;;1.71;100.00;102754.84;5060445;28;20519;-72
2023/02/06 00:25:50;;;;;;;27.97;11.93;;;;;;;1.68;100.00;102750.50;5059062;28;20865;-72
2023/02/06 00:28:18;;;;;;;34.40;9.77;;;;;;;1.66;100.00;102746.13;5060284;28;21024;-72
2023/02/06 00:30:47;;;;;;;38.40;11.70;;;;;;;1.52;100.00;102738.41;5073974;28;20508;-71
2023/02/06 00:33:13;;;;;;;26.13;10.27;;;;;;;1.44;100.00;102748.19;5065799;28;21010;-71
2023/02/06 00:35:40;;;;;;;23.00;9.67;;;;;;;1.45;100.00;102734.13;5060286;28;20476;-71
2023/02/06 00:38:06;;;;;;;24.53;10.40;;;;;;;1.26;100.00;102744.03;5060912;28;20495;-71
2023/02/06 00:40:33;;;;;;;22.93;9.60;;;;;;;1.09;100.00;102739.84;5071683;28;20504;-71
2023/02/06 00:43:00;;;;;;;25.70;10.50;;;;;;;0.98;100.00;102741.72;5078342;28;20508;-71
2023/02/06 00:45:28;;;;;;;24.37;10.47;;;;;;;0.89;100.00;102741.84;5060633;28;21310;-72
2023/02/06 00:47:55;;;;;;;27.70;9.00;;;;;;;0.82;100.00;102748.06;5065919;28;20445;-72
2023/02/06 00:50:21;;;;;;;33.10;11.20;;;;;;;0.78;100.00;102739.28;5059437;28;20524;-72
2023/02/06 00:52:48;;;;;;;22.60;9.53;;;;;;;0.75;100.00;102736.72;5060359;28;20458;-72
2023/02/06 00:55:15;;;;;;;33.17;10.30;;;;;;;0.73;100.00;102747.25;5059707;28;20465;-72
2023/02/06 00:57:41;;;;;;;26.73;8.63;;;;;;;0.76;100.00;102743.72;5059745;28;20497;-72
2023/02/06 01:00:09;;;;;;;26.80;9.90;;;;;;;0.79;100.00;102743.69;5060213;28;20485;-72
2023/02/06 01:02:37;;;;;;;26.50;11.20;;;;;;;0.85;100.00;102740.13;5060445;28;21061;-72
2023/02/06 01:05:04;;;;;;;34.30;9.87;;;;;;;0.73;100.00;102747.25;5066240;28;20445;-72
2023/02/06 01:07:31;;;;;;;26.23;8.77;;;;;;;0.69;100.00;102758.69;5081788;28;20495;-72
2023/02/06 01:09:58;;;;;;;28.97;8.30;;;;;;;0.72;100.00;102745.50;5084133;28;20456;-71
2023/02/06 01:12:24;;;;;;;19.30;8.97;;;;;;;0.63;100.00;102760.53;5068961;28;20881;-72
2023/02/06 01:14:51;;;;;;;26.27;8.87;;;;;;;0.50;100.00;102765.03;5065545;28;21182;-72
2023/02/06 01:17:18;;;;;;;35.40;9.60;;;;;;;0.44;100.00;102765.97;5074936;28;20505;-72
2023/02/06 01:19:46;;;;;;;28.70;9.70;;;;;;;0.46;100.00;102765.97;5064108;28;20477;-72
2023/02/06 01:22:12;;;;;;;20.90;9.63;;;;;;;0.40;100.00;102768.63;5063223;28;20994;-72
2023/02/06 01:24:39;;;;;;;22.53;9.23;;;;;;;0.45;100.00;102764.19;5070109;28;20461;-72
2023/02/06 01:27:05;;;;;;;28.27;10.30;;;;;;;0.50;100.00;102767.66;5063694;28;20473;-72
2023/02/06 01:29:32;;;;;;;18.83;8.03;;;;;;;0.63;100.00;102750.00;5063613;28;20469;-73
2023/02/06 01:31:59;;;;;;;29.47;9.90;;;;;;;0.63;100.00;102753.50;5065510;28;20477;-73
2023/02/06 01:34:25;;;;;;;23.00;9.50;;;;;;;0.70;100.00;102755.19;5063679;28;20441;-73
2023/02/06 01:36:53;;;;;;;28.10;9.40;;;;;;;0.68;100.00;102751.72;5078067;28;21031;-74
2023/02/06 01:39:20;;;;;;;24.27;9.93;;;;;;;0.66;100.00;102749.97;5073711;28;20456;-74
2023/02/06 01:41:47;;;;;;;17.80;7.77;;;;;;;0.54;100.00;102754.47;5062302;28;20509;-74
2023/02/06 01:44:15;;;;;;;22.67;8.03;;;;;;;0.43;100.00;102750.19;5080375;28;20512;-74
2023/02/06 01:46:44;;;;;;;26.73;9.77;;;;;;;0.40;100.00;102751.09;5082743;28;20488;-74
2023/02/06 01:49:13;;;;;;;23.00;8.27;;;;;;;0.22;100.00;102743.34;5083876;28;20444;-73
2023/02/06 01:51:41;;;;;;;24.93;9.83;;;;;;;0.13;100.00;102746.94;5082453;28;20506;-74
2023/02/06 01:54:09;;;;;;;20.93;7.50;;;;;;;0.40;100.00;102737.03;5083704;28;20504;-74
2023/02/06 01:56:39;;;;;;;23.83;8.67;;;;;;;0.35;100.00;102745.00;5081862;28;20547;-74
2023/02/06 01:59:06;;;;;;;21.63;8.30;;;;;;;0.32;100.00;102743.25;5082955;28;20444;-73
2023/02/06 02:01:33;;;;;;;29.87;9.23;;;;;;;0.36;100.00;102742.38;5082061;28;20553;-74
2023/02/06 02:04:03;;;;;;;25.60;9.23;;;;;;;0.40;100.00;102732.69;5083308;28;20475;-74
2023/02/06 02:06:30;;;;;;;23.63;8.80;;;;;;;0.36;100.00;102723.94;5082233;28;20916;-73
2023/02/06 02:08:57;;;;;;;28.90;8.53;;;;;;;0.30;100.00;102731.00;5083180;28;20452;-74
2023/02/06 02:11:27;;;;;;;29.43;10.67;;;;;;;0.33;100.00;102741.50;5082305;28;20500;-74
2023/02/06 02:13:55;;;;;;;27.10;8.93;;;;;;;0.13;100.00;102737.28;5082876;28;20965;-74
2023/02/06 02:16:26;;;;;;;25.73;9.17;;;;;;;0.08;100.00;102744.31;5082261;28;20484;-73
2023/02/06 02:19:01;;;;;;;27.17;9.30;;;;;;;0.29;100.00;102739.78;5081873;28;20481;-73
2023/02/06 02:21:50;;;;;;;20.57;8.43;;;;;;;0.33;100.00;102738.84;5082279;28;20512;-73
2023/02/06 02:24:23;;;;;;;37.70;10.70;;;;;;;0.35;100.00;102740.59;5082497;28;20472;-73
2023/02/06 02:27:13;;;;;;;27.20;8.57;;;;;;;0.35;100.00;102745.88;5079115;28;20480;-73
2023/02/06 02:30:06;;;;;;;27.33;9.37;;;;;;;0.46;100.00;102743.13;5069494;28;20474;-72
2023/02/06 02:33:05;;;;;;;20.37;8.27;;;;;;;0.44;100.00;102744.06;5059224;28;20465;-70
2023/02/06 02:35:44;;;;;;;21.03;8.73;;;;;;;0.50;100.00;102741.34;5082059;28;20472;-70
2023/02/06 02:38:18;;;;;;;23.40;8.10;;;;;;;0.40;100.00;102740.56;5083104;28;20527;-70
2023/02/06 02:40:48;;;;;;;26.83;8.27;;;;;;;0.37;100.00;102737.97;5082053;28;20535;-72
2023/02/06 02:43:20;;;;;;;24.93;9.93;;;;;;;0.39;100.00;102759.00;5081339;28;20484;-72
2023/02/06 02:45:49;;;;;;;38.00;9.27;;;;;;;0.34;100.00;102754.63;5082108;28;20472;-72
2023/02/06 02:48:20;;;;;;;22.27;8.23;;;;;;;0.39;100.00;102751.13;5081763;28;20468;-72
2023/02/06 02:50:49;;;;;;;31.17;11.80;;;;;;;0.36;100.00;102731.84;5081522;28;21122;-71
2023/02/06 02:53:15;;;;;;;19.40;7.27;;;;;;;0.34;100.00;102733.59;5082791;28;20464;-71
2023/02/06 02:55:42;;;;;;;24.80;8.77;;;;;;;0.40;100.00;102737.03;5082126;28;20471;-71
2023/02/06 02:58:11;;;;;;;18.40;8.03;;;;;;;0.32;100.00;102739.75;5081085;28;20476;-71
2023/02/06 03:00:40;;;;;;;26.27;8.03;;;;;;;0.06;100.00;102739.97;5081585;28;20547;-71
2023/02/06 03:03:09;;;;;;;23.73;8.03;;;;;;;0.02;100.00;102743.50;5082413;28;20490;-71
2023/02/06 03:05:41;;;;;;;18.93;7.10;;;;;;;-0.14;100.00;102746.25;5081628;28;20478;-71
2023/02/06 03:08:16;;;;;;;33.20;8.77;;;;;;;-0.10;100.00;102742.72;5081916;28;20591;-70
2023/02/06 03:10:48;;;;;;;25.90;8.07;;;;;;;0.07;100.00;102739.97;5081479;28;20488;-69
2023/02/06 03:13:18;;;;;;;31.60;7.93;;;;;;;0.07;100.00;102731.19;5081707;28;20445;-70
2023/02/06 03:15:48;;;;;;;21.80;9.83;;;;;;;0.10;100.00;102733.78;5081657;28;20530;-70
2023/02/06 03:18:19;;;;;;;23.00;6.63;;;;;;;0.03;100.00;102732.97;5081643;28;20464;-70
2023/02/06 03:20:46;;;;;;;19.40;7.07;;;;;;;-0.05;100.00;102733.03;5080852;28;20568;-70
2023/02/06 03:23:18;;;;;;;28.47;7.27;;;;;;;-0.23;100.00;102735.78;5080943;28;20500;-69
2023/02/06 03:25:46;;;;;;;27.07;6.40;;;;;;;-0.34;100.00;102741.13;5081121;28;20476;-72
2023/02/06 03:28:17;;;;;;;30.00;7.37;;;;;;;-0.41;100.00;102749.91;5080335;28;20772;-72
2023/02/06 03:30:47;;;;;;;31.00;6.87;;;;;;;-0.42;100.00;102745.53;5080624;28;20467;-72
2023/02/06 03:33:17;;;;;;;24.57;7.17;;;;;;;-0.42;100.00;102756.03;5081338;28;20459;-72
2023/02/06 03:35:44;;;;;;;31.00;7.50;;;;;;;-0.51;100.00;102756.09;5081285;28;20507;-72
2023/02/06 03:38:10;;;;;;;19.20;7.97;;;;;;;-0.51;100.00;102766.63;5081749;28;20436;-72
2023/02/06 03:40:39;;;;;;;15.93;6.50;;;;;;;-0.55;100.00;102755.25;5081111;28;20503;-72
2023/02/06 03:43:07;;;;;;;29.60;8.00;;;;;;;-0.53;100.00;102764.00;5080758;28;20607;-72
2023/02/06 03:45:37;;;;;;;16.63;6.67;;;;;;;-0.59;100.00;102754.38;5081108;28;20540;-72
2023/02/06 03:48:08;;;;;;;24.63;7.00;;;;;;;-0.62;100.00;102761.41;5081386;28;20524;-72
2023/02/06 03:50:35;;;;;;;32.73;8.47;;;;;;;-0.70;100.00;102757.94;5080900;28;20491;-71
2023/02/06 03:53:02;;;;;;;20.00;6.13;;;;;;;-0.80;100.00;102771.13;5080927;28;20448;-72
2023/02/06 03:55:29;;;;;;;33.53;8.17;;;;;;;-0.85;100.00;102764.09;5080891;28;20540;-71
2023/02/06 03:58:00;;;;;;;22.10;6.77;;;;;;;-0.61;100.00;102773.66;5079831;28;20882;-71
2023/02/06 04:00:27;;;;;;;18.10;7.03;;;;;;;-0.68;100.00;102764.06;5080716;28;20463;-71
2023/02/06 04:02:55;;;;;;;18.60;6.60;;;;;;;-0.55;100.00;102775.41;5081065;28;20508;-70
2023/02/06 04:05:22;;;;;;;14.57;6.03;;;;;;;-0.53;100.00;102774.50;5080810;28;20515;-71
2023/02/06 04:07:48;;;;;;;19.70;7.00;;;;;;;-0.51;100.00;102782.38;5081095;28;20475;-71
2023/02/06 04:10:18;;;;;;;26.47;6.03;;;;;;;-0.47;100.00;102782.38;5080808;28;20465;-71
2023/02/06 04:12:45;;;;;;;25.53;6.87;;;;;;;-0.54;100.00;102779.75;5080548;28;20507;-70
2023/02/06 04:15:13;;;;;;;26.30;7.73;;;;;;;-0.48;100.00;102762.22;5081092;28;20496;-72
2023/02/06 04:17:39;;;;;;;17.03;6.40;;;;;;;-0.47;100.00;102758.72;5080940;28;20440;-72
2023/02/06 04:20:07;;;;;;;23.30;6.40;;;;;;;-0.38;100.00;102756.03;5081238;28;20456;-71
2023/02/06 04:22:33;;;;;;;22.73;7.50;;;;;;;-0.42;100.00;102766.56;5080691;28;20658;-71
2023/02/06 04:25:00;;;;;;;34.27;8.50;;;;;;;-0.44;100.00;102757.81;5081033;28;20479;-71
2023/02/06 04:27:26;;;;;;;25.43;6.70;;;;;;;-0.51;100.00;102750.84;5078844;28;20525;-71
2023/02/06 04:29:53;;;;;;;28.80;8.13;;;;;;;-0.49;100.00;102747.31;5080236;28;20504;-71
2023/02/06 04:32:21;;;;;;;22.20;6.97;;;;;;;-0.67;100.00;102744.81;5060272;28;20501;-72
2023/02/06 04:34:48;;;;;;;22.70;7.43;;;;;;;-0.80;100.00;102747.47;5073752;28;20466;-73
2023/02/06 04:37:14;;;;;;;23.23;6.60;;;;;;;-0.69;100.00;102747.44;5079926;28;20558;-72
2023/02/06 04:39:41;;;;;;;27.80;6.13;;;;;;;-0.48;100.00;102740.31;5080736;28;20464;-72
2023/02/06 04:42:08;;;;;;;26.00;6.80;;;;;;;-0.67;100.00;102729.03;5080425;28;20510;-73
2023/02/06 04:44:37;;;;;;;30.60;8.70;;;;;;;-0.80;100.00;102723.84;5064312;28;20524;-73
2023/02/06 04:47:03;;;;;;;24.03;7.40;;;;;;;-0.77;100.00;102728.19;5064753;28;20540;-73
2023/02/06 04:49:31;;;;;;;19.07;6.97;;;;;;;-0.78;100.00;102721.22;5064917;28;20472;-73
2023/02/06 04:51:58;;;;;;;33.73;7.17;;;;;;;-0.87;100.00;102722.09;5063890;28;20483;-73
2023/02/06 04:54:25;;;;;;;24.57;8.90;;;;;;;-0.77;100.00;102722.94;5064823;28;20977;-73
2023/02/06 04:56:51;;;;;;;22.47;7.87;;;;;;;-0.73;100.00;102726.44;5063135;28;20488;-73
2023/02/06 04:59:18;;;;;;;31.13;7.03;;;;;;;-0.85;100.00;102719.47;5063813;28;20441;-73
2023/02/06 05:01:44;;;;;;;17.83;6.90;;;;;;;-0.89;100.00;102728.25;5055132;28;20584;-70
2023/02/06 05:04:11;;;;;;;20.97;7.70;;;;;;;-0.96;100.00;102725.63;5070640;28;20574;-71
2023/02/06 05:06:39;;;;;;;26.80;8.00;;;;;;;-0.91;100.00;102728.25;5066167;28;20469;-71
2023/02/06 05:09:06;;;;;;;17.10;8.07;;;;;;;-0.79;100.00;102733.44;5064186;28;20473;-71
2023/02/06 05:11:33;;;;;;;26.53;7.60;;;;;;;-0.84;100.00;102743.09;5063252;28;20553;-71
2023/02/06 05:13:59;;;;;;;34.50;10.60;;;;;;;-0.78;100.00;102735.22;5063537;28;20445;-71
2023/02/06 05:16:26;;;;;;;23.13;8.83;;;;;;;-0.61;100.00;102729.00;5063675;28;20563;-71
2023/02/06 05:18:54;;;;;;;31.70;9.93;;;;;;;-0.45;100.00;102735.94;5066207;28;20517;-71
2023/02/06 05:21:20;;;;;;;30.03;8.83;;;;;;;-0.19;100.00;102734.91;5059790;28;20560;-70
2023/02/06 05:23:48;;;;;;;33.00;10.47;;;;;;;0.05;100.00;102727.69;5062255;28;20511;-67
2023/02/06 05:26:15;;;;;;;40.63;12.33;;;;;;;0.19;100.00;102731.09;5059739;28;20513;-67
2023/02/06 05:28:42;;;;;;;37.67;10.40;;;;;;;0.27;100.00;102731.03;5060998;28;20512;-68
2023/02/06 05:31:08;;;;;;;30.43;11.07;;;;;;;0.29;100.00;102730.13;5068225;28;20476;-68
2023/02/06 05:33:35;;;;;;;29.73;9.20;;;;;;;0.27;100.00;102729.25;5064311;28;20480;-68
2023/02/06 05:36:02;;;;;;;28.90;10.23;;;;;;;0.29;100.00;102732.75;5077773;28;20494;-67
2023/02/06 05:38:29;;;;;;;49.77;13.93;;;;;;;0.25;100.00;102733.69;5073437;28;20433;-67
2023/02/06 05:40:57;;;;;;;37.53;10.00;;;;;;;0.27;100.00;102723.16;5062094;28;20489;-68
2023/02/06 05:43:24;;;;;;;32.63;9.60;;;;;;;0.34;100.00;102727.47;5069468;28;20524;-67
2023/02/06 05:45:50;;;;;;;25.47;10.67;;;;;;;0.32;100.00;102726.59;5083817;28;20476;-67
2023/02/06 05:48:17;;;;;;;26.43;10.50;;;;;;;0.25;100.00;102738.06;5084079;28;20463;-68
2023/02/06 05:50:44;;;;;;;35.77;11.43;;;;;;;0.36;100.00;102738.84;5082318;28;20481;-68
2023/02/06 05:53:10;;;;;;;35.73;12.17;;;;;;;0.43;100.00;102737.88;5081536;28;20449;-68
2023/02/06 05:55:37;;;;;;;31.37;11.13;;;;;;;0.49;100.00;102732.59;5081057;28;20562;-66
2023/02/06 05:58:05;;;;;;;37.47;12.83;;;;;;;0.48;100.00;102736.09;5080227;28;20484;-66
2023/02/06 06:00:31;;;;;;;37.20;11.40;;;;;;;0.52;100.00;102724.66;5082664;28;20476;-66
2023/02/06 06:02:58;;;;;;;26.97;12.70;;;;;;;0.47;100.00;102733.47;5083163;28;20505;-66
2023/02/06 06:05:25;;;;;;;50.60;12.90;;;;;;;0.49;100.00;102721.19;5081649;28;20464;-66
2023/02/06 06:07:51;;;;;;;31.10;11.60;;;;;;;0.54;100.00;102722.88;5083492;28;20436;-66
2023/02/06 06:10:18;;;;;;;27.70;10.30;;;;;;;0.59;100.00;102725.47;5069786;28;20457;-66
2023/02/06 06:12:45;;;;;;;20.70;9.10;;;;;;;0.69;100.00;102735.00;5080638;28;20449;-67
2023/02/06 06:15:13;;;;;;;23.97;12.30;;;;;;;0.74;100.00;102717.41;5079434;28;20965;-66
2023/02/06 06:17:40;;;;;;;27.57;11.60;;;;;;;0.79;100.00;102720.00;5073733;28;20448;-66
2023/02/06 06:20:07;;;;;;;38.97;10.50;;;;;;;0.78;100.00;102725.28;5082325;28;20743;-66
2023/02/06 06:22:33;;;;;;;25.60;11.17;;;;;;;0.75;100.00;102721.78;5082641;28;20491;-71
2023/02/06 06:25:00;;;;;;;38.57;12.70;;;;;;;0.82;100.00;102719.97;5082052;28;20460;-70
2023/02/06 06:27:26;;;;;;;27.93;11.17;;;;;;;0.72;100.00;102742.88;5081368;28;20483;-71
2023/02/06 06:29:53;;;;;;;43.40;12.97;;;;;;;0.69;100.00;102750.81;5082819;28;20488;-71
2023/02/06 06:32:21;;;;;;;33.47;11.70;;;;;;;0.72;100.00;102748.13;5081763;28;20504;-71
2023/02/06 06:34:50;;;;;;;22.53;11.50;;;;;;;0.83;100.00;102744.53;5082353;28;20934;-71
2023/02/06 06:37:16;;;;;;;30.60;12.10;;;;;;;0.84;100.00;102739.25;5082240;28;20647;-71
2023/02/06 06:39:43;;;;;;;62.47;13.53;;;;;;;0.75;100.00;102750.75;5082024;28;20468;-71
2023/02/06 06:42:13;;;;;;;23.53;12.20;;;;;;;0.88;100.00;102746.22;5080975;28;20487;-71
2023/02/06 06:44:39;;;;;;;31.43;14.50;;;;;;;0.94;100.00;102751.44;5081874;28;20929;-71
2023/02/06 06:47:06;;;;;;;38.67;12.67;;;;;;;0.89;100.00;102761.13;5081578;28;20502;-72
2023/02/06 06:49:34;;;;;;;28.63;12.60;;;;;;;1.01;100.00;102759.25;5082202;28;20432;-71
2023/02/06 06:52:00;;;;;;;28.40;12.60;;;;;;;1.01;100.00;102769.78;5081761;28;20512;-71
2023/02/06 06:54:27;;;;;;;30.20;15.17;;;;;;;1.07;100.00;102773.22;5082285;28;20476;-72
2023/02/06 06:56:54;;;;;;;35.97;14.07;;;;;;;1.05;100.00;102767.09;5081509;28;20580;-72
2023/02/06 06:59:20;;;;;;;30.50;13.23;;;;;;;1.13;100.00;102767.03;5081998;28;20440;-71
2023/02/06 07:01:51;;;;;;;35.17;12.83;;;;;;;1.00;100.00;102763.66;5080436;28;20487;-72
2023/02/06 07:04:17;;;;;;;31.33;14.10;;;;;;;1.10;100.00;102767.06;5080723;28;20527;-72
2023/02/06 07:06:45;;;;;;;35.80;14.90;;;;;;;1.09;100.00;102760.03;5081238;28;20499;-72
2023/02/06 07:09:12;;;;;;;31.77;14.90;;;;;;;1.18;100.00;102753.78;5082476;28;20477;-72
2023/02/06 07:11:39;;;;;;;24.63;12.17;;;;;;;1.25;100.00;102769.53;5081298;28;20906;-72
2023/02/06 07:14:05;;;;;;;28.17;12.97;;;;;;;1.21;100.00;102759.88;5080924;28;20479;-72
2023/02/06 07:16:32;;;;;;;27.60;12.47;;;;;;;1.24;100.00;102764.28;5081588;28;20498;-72
2023/02/06 07:18:59;;;;;;;36.73;14.97;;;;;;;1.34;100.00;102767.63;5082076;28;20479;-72
2023/02/06 07:21:25;;;;;;;29.67;12.40;;;;;;;1.38;100.00;102761.47;5081350;28;20533;-72
2023/02/06 07:23:53;;;;;;;26.63;13.83;;;;;;;1.41;100.00;102757.03;5080928;28;20468;-72
2023/02/06 07:26:20;;;;;;;34.03;13.13;;;;;;;1.48;100.00;102773.63;5081542;28;20476;-71
2023/02/06 07:28:48;;;;;;;30.03;13.00;;;;;;;1.56;100.00;102763.84;5081030;28;20475;-71
2023/02/06 07:31:17;;;;;;;28.60;12.10;;;;;;;1.54;100.00;102756.84;5081582;28;20531;-72
2023/02/06 07:33:43;;;;;;;24.87;12.10;;;;;;;1.55;100.00;102750.69;5081093;28;20452;-72
2023/02/06 07:36:11;;;;;;;31.83;12.07;;;;;;;1.53;100.00;102745.44;5081337;28;20495;-72
2023/02/06 07:38:37;;;;;;;33.53;14.00;;;;;;;1.61;100.00;102758.50;5081822;28;20438;-72
2023/02/06 07:41:06;;;;;;;34.37;15.50;;;;;;;1.58;100.00;102769.09;5061132;28;20504;-72
2023/02/06 07:43:32;;;;;;;29.20;13.90;;;;;;;1.63;100.00;102762.88;5072604;28;20524;-72
2023/02/06 07:46:00;;;;;;;37.80;14.60;;;;;;;1.59;100.00;102762.94;5079027;28;20508;-72
2023/02/06 07:48:27;;;;;;;30.30;14.23;;;;;;;1.69;100.00;102768.06;5080796;28;20508;-72
2023/02/06 07:50:54;;;;;;;29.73;12.73;;;;;;;1.67;100.00;102772.50;5080102;28;20515;-72
2023/02/06 07:53:21;;;;;;;24.10;13.20;;;;;;;1.77;100.00;102773.25;5080132;28;20487;-72
2023/02/06 07:55:48;;;;;;;30.23;14.27;;;;;;;1.82;100.00;102771.41;5080004;28;20500;-72
2023/02/06 07:58:16;;;;;;;31.40;15.00;;;;;;;1.65;100.00;102762.84;5079345;28;20543;-72
2023/02/06 08:00:42;;;;;;;43.63;14.57;;;;;;;1.62;100.00;102761.13;5079545;28;20703;-73
2023/02/06 08:03:09;;;;;;;46.73;15.27;;;;;;;1.39;100.00;102758.81;5080261;28;20507;-73
2023/02/06 08:05:38;;;;;;;31.43;12.40;;;;;;;1.39;100.00;102757.91;5079893;28;20943;-73
2023/02/06 08:08:05;;;;;;;30.87;13.57;;;;;;;1.38;100.00;102746.50;5080266;28;20519;-73
2023/02/06 08:10:31;;;;;;;42.57;14.27;;;;;;;1.71;100.00;102746.09;5080009;28;20483;-73
2023/02/06 08:12:58;;;;;;;38.30;14.87;;;;;;;1.88;100.00;102750.19;5080134;28;20472;-73
2023/02/06 08:15:26;;;;;;;39.07;12.73;;;;;;;1.81;100.00;102751.19;5079723;28;20441;-73
2023/02/06 08:17:53;;;;;;;38.40;16.10;;;;;;;1.94;100.00;102743.09;5079171;28;20444;-73
2023/02/06 08:20:19;;;;;;;34.67;14.60;;;;;;;1.99;100.00;102751.81;5076991;28;20483;-73
2023/02/06 08:22:46;;;;;;;35.57;14.47;;;;;;;1.86;100.00;102759.91;5066984;28;20521;-73
2023/02/06 08:25:13;;;;;;;37.17;15.03;;;;;;;1.91;100.00;102753.69;5079997;28;20428;-73
2023/02/06 08:27:39;;;;;;;42.37;15.13;;;;;;;1.88;100.00;102750.19;5079345;28;20474;-73
2023/02/06 08:30:07;;;;;;;32.93;15.43;;;;;;;1.80;100.00;102754.72;5080059;28;20460;-73
2023/02/06 08:32:35;;;;;;;45.97;15.43;;;;;;;1.77;100.00;102757.41;5079663;28;20459;-73
2023/02/06 08:35:02;;;;;;;52.40;18.40;;;;;;;2.01;100.00;102763.22;5080032;28;20436;-73
2023/02/06 08:37:29;;;;;;;34.37;15.73;;;;;;;2.23;100.00;102754.06;5079389;28;20515;-73
2023/02/06 08:39:55;;;;;;;54.73;16.00;;;;;;;2.41;100.00;102757.28;5080291;28;20464;-73
2023/02/06 08:42:22;;;;;;;47.67;18.80;;;;;;;2.51;100.00;102761.50;5078367;28;20511;-73
2023/02/06 08:44:49;;;;;;;51.37;17.80;;;;;;;2.59;100.00;102764.03;5079836;28;20881;-73
2023/02/06 08:47:16;;;;;;;44.23;17.00;;;;;;;2.42;100.00;102772.25;5079252;28;20503;-73
2023/02/06 08:49:44;;;;;;;43.07;17.10;;;;;;;2.62;100.00;102783.34;5080330;28;20461;-73
2023/02/06 08:52:11;;;;;;;49.37;15.60;;;;;;;2.56;100.00;102780.78;5079280;28;20476;-73
2023/02/06 08:54:37;;;;;;;43.73;13.80;;;;;;;2.67;100.00;102782.38;5079831;28;20452;-73
2023/02/06 08:57:05;;;;;;;45.33;14.10;;;;;;;2.57;100.00;102777.25;5079082;28;20545;-73
2023/02/06 08:59:33;;;;;;;63.63;16.23;;;;;;;2.74;100.00;102782.25;5079618;28;20476;-72
2023/02/06 09:01:59;;;;;;;65.13;17.67;;;;;;;2.92;100.00;102775.75;5078580;28;20483;-72
2023/02/06 09:04:30;;;;;;;43.70;16.33;;;;;;;2.88;100.00;102781.09;5080596;28;20504;-73
2023/02/06 09:06:58;;;;;;;46.13;17.80;;;;;;;3.12;100.00;102774.47;5079110;28;20831;-72
2023/02/06 09:09:25;;;;;;;61.67;19.77;;;;;;;3.36;100.00;102776.63;5079412;28;20467;-73
2023/02/06 09:11:52;;;;;;;48.37;15.43;;;;;;;3.30;100.00;102774.13;5079224;28;21420;-73
2023/02/06 09:14:19;;;;;;;42.43;14.33;;;;;;;3.38;100.00;102774.81;5079461;28;20799;-73
2023/02/06 09:16:46;;;;;;;47.57;15.00;;;;;;;3.45;100.00;102770.25;5078900;28;20468;-73
2023/02/06 09:19:13;;;;;;;45.90;16.37;;;;;;;3.56;100.00;102759.47;5079729;28;20975;-72
2023/02/06 09:21:39;;;;;;;42.50;15.20;;;;;;;3.95;100.00;102765.63;5079313;28;20534;-72
2023/02/06 09:24:08;;;;;;;44.57;16.53;;;;;;;4.62;100.00;102767.53;5070676;28;20484;-72
2023/02/06 09:26:37;;;;;;;48.10;16.23;;;;;;;4.90;100.00;102774.75;5078382;28;20564;-72
2023/02/06 09:29:06;;;;;;;48.80;15.97;;;;;;;4.84;100.00;102764.28;5081038;28;20537;-72
2023/02/06 09:31:34;;;;;;;46.07;16.07;;;;;;;4.61;100.00;102770.22;5082425;28;20476;-72
2023/02/06 09:34:01;;;;;;;45.50;17.43;;;;;;;4.84;100.00;102757.22;5083225;28;20452;-72
2023/02/06 09:36:29;;;;;;;48.53;18.17;;;;;;;5.13;100.00;102758.19;5082645;28;20571;-73
2023/02/06 09:38:57;;;;;;;41.03;14.97;;;;;;;5.12;100.00;102748.50;5082727;28;20432;-73
2023/02/06 09:41:30;;;;;;;44.83;15.27;;;;;;;4.83;100.00;102763.44;5082606;28;20475;-73
2023/02/06 09:43:59;;;;;;;43.23;16.27;;;;;;;4.36;100.00;102748.75;5081313;28;20495;-73
2023/02/06 09:46:30;;;;;;;43.83;18.80;;;;;;;4.32;100.00;102755.91;5081620;28;20573;-73
2023/02/06 09:48:57;;;;;;;44.67;15.43;;;;;;;4.45;100.00;102745.91;5082854;28;20448;-72
2023/02/06 09:51:29;;;;;;;46.13;17.70;;;;;;;4.28;100.00;102743.69;5082334;28;21011;-73
2023/02/06 09:54:04;;;;;;;55.10;18.40;;;;;;;4.34;100.00;102740.88;5082949;28;20473;-72
2023/02/06 09:56:37;;;;;;;36.07;14.40;;;;;;;4.40;100.00;102734.56;5082662;28;20472;-73
2023/02/06 09:59:12;;;;;;;42.50;14.87;;;;;;;4.50;100.00;102744.88;5080491;28;20475;-73
2023/02/06 10:01:43;;;;;;;43.23;16.90;;;;;;;4.45;100.00;102736.16;5098608;28;20559;-73
2023/02/06 10:04:25;;;;;;;48.30;17.33;;;;;;;4.29;100.00;102735.69;5082596;28;20472;-72
2023/02/06 10:06:56;;;;;;;37.40;15.73;;;;;;;3.88;100.00;102728.75;5081571;28;20510;-72
2023/02/06 10:09:27;;;;;;;42.43;16.77;;;;;;;3.97;100.00;102731.19;5082553;28;20444;-72
2023/02/06 10:11:58;;;;;;;38.00;12.70;;;;;;;4.00;100.00;102731.13;5080138;28;20499;-72
2023/02/06 10:14:28;;;;;;;43.77;14.67;;;;;;;4.04;100.00;102730.13;5081724;28;20468;-72
2023/02/06 10:16:59;;;;;;;33.70;13.80;;;;;;;4.20;100.00;102728.00;5082468;28;20516;-73
2023/02/06 10:19:39;;;;;;;30.77;12.40;;;;;;;4.37;100.00;102719.59;5082717;28;20440;-73
2023/02/06 10:22:11;;;;;;;31.90;14.97;;;;;;;4.46;100.00;102724.69;5081493;28;20526;-73
2023/02/06 10:24:41;;;;;;;40.13;13.70;;;;;;;4.46;100.00;102724.69;5082732;28;20543;-72
2023/02/06 10:27:12;;;;;;;35.07;13.50;;;;;;;4.63;100.00;102718.91;5082098;28;20499;-72
2023/02/06 10:29:40;;;;;;;29.50;13.43;;;;;;;4.54;100.00;102716.50;5081751;28;20449;-72
2023/02/06 10:32:25;;;;;;;37.50;14.90;;;;;;;4.44;100.00;102718.53;5081883;28;20484;-73
2023/02/06 10:35:13;;;;;;;34.90;14.10;;;;;;;4.41;100.00;102718.63;5082402;28;20436;-73
2023/02/06 10:38:24;;;;;;;34.77;12.87;;;;;;;4.64;100.00;102715.34;5081642;28;20467;-73
2023/02/06 10:40:54;;;;;;;29.63;11.80;;;;;;;4.84;100.00;102721.88;5033242;28;20468;-73
2023/02/06 10:43:31;;;;;;;30.87;13.90;;;;;;;4.94;100.00;102726.03;5079961;28;20480;-73
2023/02/06 10:46:07;;;;;;;29.87;12.23;;;;;;;5.02;100.00;102713.41;5081713;28;20510;-73
2023/02/06 10:48:37;;;;;;;45.93;14.10;;;;;;;5.18;100.00;102718.28;5082656;28;20456;-73
2023/02/06 10:51:11;;;;;;;40.97;15.83;;;;;;;5.34;100.00;102716.91;5081024;28;20476;-72
2023/02/06 10:53:39;;;;;;;28.67;12.70;;;;;;;5.43;100.00;102726.38;5081937;28;20471;-73
2023/02/06 10:56:12;;;;;;;30.93;12.93;;;;;;;5.08;100.00;102723.84;5081709;28;20883;-70
2023/02/06 10:58:45;;;;;;;25.53;12.47;;;;;;;5.44;100.00;102714.84;5079798;28;20461;-70
2023/02/06 11:01:13;;;;;;;32.20;12.90;;;;;;;5.43;100.00;102706.03;5081121;28;20488;-70
2023/02/06 11:03:43;;;;;;;28.73;12.00;;;;;;;5.57;100.00;102715.34;5082175;28;20562;-70
2023/02/06 11:06:13;;;;;;;33.93;13.40;;;;;;;5.60;100.00;102710.78;5080899;28;20472;-73
2023/02/06 11:08:43;;;;;;;28.43;12.50;;;;;;;5.53;100.00;102705.75;5081993;28;20495;-73
2023/02/06 11:11:20;;;;;;;36.50;13.90;;;;;;;5.71;100.00;102713.13;5080815;28;20495;-73
2023/02/06 11:13:50;;;;;;;30.80;12.60;;;;;;;5.72;100.00;102714.00;5080536;28;20447;-73
2023/02/06 11:16:22;;;;;;;24.80;12.67;;;;;;;5.33;100.00;102707.22;5081586;28;20476;-73
2023/02/06 11:18:50;;;;;;;31.17;12.83;;;;;;;5.09;100.00;102704.38;5081328;28;20487;-72